Tuesday, January 22, 2019, 4:43 PM EST
Back to Local

KFOK, The Gabreski Airport

Location: East Quogue, NY, United States Lat: 40.85
Local Time: 4:43 PM EST (21:43 GMT) Lon: -72.617
Time Zone: US/Eastern Elev: 65 ft

Show me the last for .
Show Decoded

2019-01-22 15:53 METAR KFOK 222053Z 31009KT 10SM CLR M03/M16 A3061 RMK AO2 SLP367 T10281156 51007
                 $ =
2019-01-22 14:53 METAR KFOK 221953Z 32015KT 10SM CLR M03/M16 A3061 RMK AO2 SLP365 T10281156 $ =
2019-01-22 13:53 METAR KFOK 221853Z 31012KT 10SM CLR M03/M16 A3061 RMK AO2 SLP364 T10281156 $ =
2019-01-22 12:53 METAR KFOK 221753Z 32015G20KT 10SM CLR M04/M17 A3059 RMK AO2 SLP360 T10391167
                 11033 21094 58005 $ =
2019-01-22 11:53 METAR KFOK 221653Z 32016G24KT 10SM CLR M04/M16 A3059 RMK AO2 PK WND 31028/1610
                 SLP359 T10441161 $ =
2019-01-22 10:53 METAR KFOK 221553Z 33015G25KT 10SM CLR M06/M17 A3062 RMK AO2 PK WND 32026/1525
                 SLP368 T10561167 $ =
2019-01-22 09:53 METAR KFOK 221453Z 33015KT 10SM CLR M07/M17 A3061 RMK AO2 PK WND 34027/1408
                 SLP366 T10671167 50012 $ =
2019-01-22 08:53 METAR KFOK 221353Z 33012G18KT 10SM CLR M07/M17 A3061 RMK AO2 SLP366 T10721167 $
                 =
2019-01-22 07:53 METAR KFOK 221253Z 30007KT 10SM CLR M09/M17 A3058 RMK AO2 SLP357 T10891167 $ =
2019-01-22 06:53 METAR KFOK 221153Z 31011G19KT 10SM CLR M09/M18 A3057 RMK AO2 SLP355 T10941183
                 11094 21100 51056 $ =
2019-01-22 05:53 METAR KFOK 221053Z AUTO 30013KT 10SM CLR M10/M18 A3053 RMK AO2 SLP338 T11001178
                 $ =
2019-01-22 04:53 METAR KFOK 220953Z AUTO 31011G19KT 10SM CLR M10/M18 A3046 RMK AO2 SLP316
                 T11001183 $ =
2019-01-22 03:53 METAR KFOK 220853Z AUTO 31017G23KT 10SM CLR M10/M18 A3041 RMK AO2 PK WND
                 34029/0755 SLP299 T11001183 53027 $ =
2019-01-22 02:53 METAR KFOK 220753Z AUTO 32018G29KT 10SM CLR M10/M18 A3038 RMK AO2 PK WND
                 33030/0719 SLP288 T11001183 $ =
2019-01-22 01:53 METAR KFOK 220653Z AUTO 32014G23KT 10SM CLR M10/M18 A3035 RMK AO2 PK WND
                 32032/0600 SLP280 T11001183 $ =
2019-01-22 00:53 METAR KFOK 220553Z AUTO 31019G27KT 10SM CLR M10/M19 A3033 RMK AO2 PK WND
                 30032/0528 SLP271 T11001194 11100 21111 51023 $ =
2019-01-21 23:53 METAR KFOK 220453Z AUTO 30019G28KT 10SM CLR M11/M19 A3032 RMK AO2 PK WND
                 30028/0431 SLP267 T11061194 410941139 $ =
2019-01-21 22:53 METAR KFOK 220353Z 31016G23KT 10SM CLR M11/M20 A3029 RMK AO2 PK WND 32030/0321
                 SLP258 T11111200 $ =
2019-01-21 21:53 METAR KFOK 220253Z 31015G23KT 10SM CLR M11/M21 A3026 RMK AO2 PK WND 30033/0155
                 SLP248 T11111206 51049 $ =
2019-01-21 20:53 METAR KFOK 220153Z 31019G30KT 10SM CLR M11/M21 A3022 RMK AO2 PK WND 31036/0124
                 SLP234 T11111211 $ =
2019-01-21 19:53 METAR KFOK 220053Z 31016G24KT 10SM CLR M11/M21 A3016 RMK AO2 PK WND 30033/2359
                 PRESRR SLP215 T11061206 $ =
2019-01-21 18:53 METAR KFOK 212353Z 30020G32KT 10SM FEW090 SCT110 M10/M20 A3011 RMK AO2 PK WND
                 31035/2337 PRESRR SLP199 60000 T11001200 11094 21122 51040 $ =
2019-01-21 17:53 METAR KFOK 212253Z 29017G30KT 10SM BKN043 BKN050 M10/M18 A3007 RMK AO2 PK WND
                 29031/2158 SLP185 T11001183 $ =
2019-01-21 16:53 METAR KFOK 212153Z 29016G33KT 10SM OVC047 M10/M18 A3004 RMK AO2 PK WND
                 30034/2114 SLP173 T11001183 $ =

Support USWX by starting your Amazon purchase here.